Time;durP1;ratioP1;P1;durP2;ratioP2;P2;SDS_P1;SDS_P2;PMS_P1;PMS_P2;Temp;Humidity;BMP_temperature;BMP_pressure;BME280_temperature;BME280_humidity;BME280_pressure;Samples;Min_cycle;Max_cycle;Signal;HPM_P1;HPM_P2
2022/09/21 00:00:36;;;;;;;9.30;3.90;;;;;;;;;;5075814;28;20036;-76
2022/09/21 00:03:02;;;;;;;6.13;3.28;;;;;;;;;;5071458;28;20044;-75
2022/09/21 00:05:28;;;;;;;7.60;3.67;;;;;;;;;;5063775;28;20052;-75
2022/09/21 00:07:54;;;;;;;8.32;3.50;;;;;;;;;;5061196;28;20521;-75
2022/09/21 00:10:21;;;;;;;8.60;3.28;;;;;;;;;;5066069;28;20045;-75
2022/09/21 00:12:47;;;;;;;8.48;3.00;;;;;;;;;;5061983;28;20060;-75
2022/09/21 00:15:16;;;;;;;9.10;3.80;;;;;;;;;;5062556;28;20041;-75
2022/09/21 00:17:42;;;;;;;7.68;3.13;;;;;;;;;;5062213;28;20044;-75
2022/09/21 00:20:08;;;;;;;12.70;3.80;;;;;;;;;;5063150;28;20041;-75
2022/09/21 00:22:34;;;;;;;8.48;3.25;;;;;;;;;;5061950;28;20049;-76
2022/09/21 00:25:04;;;;;;;4.93;2.92;;;;;;;;;;5064797;28;20041;-75
2022/09/21 00:27:30;;;;;;;12.15;3.42;;;;;;;;;;5061791;28;20103;-75
2022/09/21 00:29:57;;;;;;;7.13;3.38;;;;;;;;;;5044558;28;20053;-76
2022/09/21 00:32:24;;;;;;;7.85;3.50;;;;;;;;;;5062240;28;20045;-75
2022/09/21 00:34:50;;;;;;;11.32;3.60;;;;;;;;;;5065457;28;20045;-75
2022/09/21 00:37:17;;;;;;;6.65;3.13;;;;;;;;;;5076057;28;20115;-75
2022/09/21 00:39:43;;;;;;;8.77;3.25;;;;;;;;;;5068436;28;20045;-76
2022/09/21 00:42:10;;;;;;;7.22;3.10;;;;;;;;;;5062366;28;20106;-75
2022/09/21 00:44:36;;;;;;;8.30;3.38;;;;;;;;;;5061042;28;20041;-75
2022/09/21 00:47:07;;;;;;;8.27;3.28;;;;;;;;;;5043534;28;20409;-75
2022/09/21 00:49:34;;;;;;;7.18;3.40;;;;;;;;;;5048721;28;20071;-75
2022/09/21 00:52:01;;;;;;;7.60;3.05;;;;;;;;;;5061290;28;20049;-75
2022/09/21 00:54:32;;;;;;;7.22;2.95;;;;;;;;;;5058357;28;20060;-75
2022/09/21 00:57:01;;;;;;;9.10;3.45;;;;;;;;;;5061265;28;20114;-75
2022/09/21 00:59:29;;;;;;;8.15;3.15;;;;;;;;;;5060861;28;20049;-75
2022/09/21 01:01:55;;;;;;;8.05;3.40;;;;;;;;;;5067414;28;20488;-75
2022/09/21 01:04:22;;;;;;;6.93;3.20;;;;;;;;;;5071785;28;20124;-75
2022/09/21 01:06:49;;;;;;;8.50;3.20;;;;;;;;;;5066823;28;20047;-75
2022/09/21 01:09:16;;;;;;;11.13;3.30;;;;;;;;;;5063493;28;20556;-75
2022/09/21 01:12:00;;;;;;;8.13;3.25;;;;;;;;;;5068134;28;20041;-75
2022/09/21 01:14:33;;;;;;;10.18;3.00;;;;;;;;;;5061704;28;20067;-75
2022/09/21 01:17:17;;;;;;;6.38;2.75;;;;;;;;;;5081322;28;20041;-75
2022/09/21 01:19:56;;;;;;;11.10;3.40;;;;;;;;;;5080406;28;20052;-76
2022/09/21 01:22:25;;;;;;;7.43;2.97;;;;;;;;;;5051837;28;20053;-75
2022/09/21 01:25:11;;;;;;;6.20;2.55;;;;;;;;;;5067532;28;20381;-75
2022/09/21 01:27:57;;;;;;;5.22;2.90;;;;;;;;;;5080847;28;20389;-75
2022/09/21 01:30:23;;;;;;;7.07;2.33;;;;;;;;;;5077165;28;20040;-75
2022/09/21 01:32:55;;;;;;;4.07;2.22;;;;;;;;;;5081620;28;20080;-75
2022/09/21 01:35:24;;;;;;;5.32;2.85;;;;;;;;;;5057404;28;20115;-75
2022/09/21 01:37:55;;;;;;;5.63;2.30;;;;;;;;;;5061366;28;20400;-75
2022/09/21 01:40:25;;;;;;;6.25;2.75;;;;;;;;;;5061085;28;20067;-75
2022/09/21 01:42:52;;;;;;;5.57;2.42;;;;;;;;;;5062725;28;20033;-75
2022/09/21 01:45:23;;;;;;;8.18;2.70;;;;;;;;;;5061264;28;20049;-75
2022/09/21 01:47:50;;;;;;;4.90;2.70;;;;;;;;;;5061033;28;20128;-75
2022/09/21 01:50:17;;;;;;;7.00;3.03;;;;;;;;;;5027875;28;20057;-75
2022/09/21 01:52:49;;;;;;;4.25;2.60;;;;;;;;;;5060455;28;20135;-75
2022/09/21 01:55:21;;;;;;;6.93;2.85;;;;;;;;;;5043118;28;20048;-75
2022/09/21 01:57:47;;;;;;;5.57;2.60;;;;;;;;;;5047179;28;20036;-75
2022/09/21 02:00:15;;;;;;;4.88;2.88;;;;;;;;;;5060417;28;20045;-75
2022/09/21 02:02:45;;;;;;;7.18;2.88;;;;;;;;;;5043007;28;20156;-75
2022/09/21 02:05:12;;;;;;;6.57;3.08;;;;;;;;;;5026129;28;20053;-76
2022/09/21 02:07:39;;;;;;;7.15;2.80;;;;;;;;;;5044560;28;20105;-75
2022/09/21 02:10:07;;;;;;;6.38;2.97;;;;;;;;;;5065620;28;20048;-75
2022/09/21 02:12:33;;;;;;;6.05;3.22;;;;;;;;;;5071665;28;20485;-75
2022/09/21 02:15:00;;;;;;;6.32;3.30;;;;;;;;;;5078921;28;20045;-75
2022/09/21 02:17:33;;;;;;;7.90;3.20;;;;;;;;;;5059017;28;20501;-75
2022/09/21 02:20:18;;;;;;;7.10;3.47;;;;;;;;;;5058586;28;20052;-75
2022/09/21 02:22:44;;;;;;;7.78;3.70;;;;;;;;;;5050090;28;20041;-75
2022/09/21 02:25:13;;;;;;;5.82;3.72;;;;;;;;;;5077995;28;20041;-75
2022/09/21 02:27:39;;;;;;;7.28;3.40;;;;;;;;;;5078500;28;20044;-76
2022/09/21 02:30:25;;;;;;;9.20;3.75;;;;;;;;;;5078936;28;20119;-76
2022/09/21 02:33:02;;;;;;;9.70;3.53;;;;;;;;;;5079375;28;20041;-75
2022/09/21 02:35:38;;;;;;;8.82;3.72;;;;;;;;;;5078645;28;20044;-76
2022/09/21 02:38:10;;;;;;;7.55;3.58;;;;;;;;;;5076984;28;20124;-75
2022/09/21 02:40:39;;;;;;;8.85;3.50;;;;;;;;;;5078390;28;20511;-76
2022/09/21 02:43:08;;;;;;;9.32;3.95;;;;;;;;;;5064348;28;20044;-75
2022/09/21 02:45:41;;;;;;;7.78;4.03;;;;;;;;;;5060439;28;20045;-75
2022/09/21 02:48:11;;;;;;;10.00;4.88;;;;;;;;;;5077709;28;20080;-76
2022/09/21 02:50:57;;;;;;;8.23;3.85;;;;;;;;;;5078450;28;20119;-76
2022/09/21 02:53:25;;;;;;;8.20;4.10;;;;;;;;;;5073993;28;20068;-75
2022/09/21 02:55:52;;;;;;;8.82;4.15;;;;;;;;;;5059049;28;20041;-76
2022/09/21 02:58:19;;;;;;;10.60;4.40;;;;;;;;;;5058041;28;20061;-76
2022/09/21 03:00:46;;;;;;;6.63;4.00;;;;;;;;;;5063596;28;20044;-75
2022/09/21 03:03:19;;;;;;;8.05;3.80;;;;;;;;;;5077643;28;20056;-76
2022/09/21 03:05:48;;;;;;;10.80;4.15;;;;;;;;;;5077374;28;20056;-76
2022/09/21 03:08:14;;;;;;;9.25;4.20;;;;;;;;;;5061480;28;20067;-76
2022/09/21 03:10:40;;;;;;;6.82;3.28;;;;;;;;;;5074861;28;20033;-75
2022/09/21 03:13:08;;;;;;;9.02;3.53;;;;;;;;;;5072429;28;20047;-75
2022/09/21 03:15:34;;;;;;;7.18;3.78;;;;;;;;;;5069191;28;20056;-75
2022/09/21 03:18:01;;;;;;;8.35;4.30;;;;;;;;;;5057766;28;20052;-75
2022/09/21 03:20:27;;;;;;;4.35;3.17;;;;;;;;;;5059233;28;20402;-75
2022/09/21 03:22:53;;;;;;;4.25;3.00;;;;;;;;;;5049885;28;20074;-75
2022/09/21 03:25:19;;;;;;;6.18;3.30;;;;;;;;;;5075955;28;20131;-75
2022/09/21 03:27:45;;;;;;;6.65;3.40;;;;;;;;;;5077920;28;20051;-75
2022/09/21 03:30:11;;;;;;;5.65;3.28;;;;;;;;;;5043629;28;20088;-76
2022/09/21 03:32:37;;;;;;;4.90;2.90;;;;;;;;;;5078737;28;20045;-76
2022/09/21 03:35:03;;;;;;;4.03;2.95;;;;;;;;;;5077780;28;20566;-75
2022/09/21 03:37:29;;;;;;;5.90;2.80;;;;;;;;;;5051943;28;20072;-75
2022/09/21 03:39:55;;;;;;;4.90;2.30;;;;;;;;;;5057163;28;20043;-75
2022/09/21 03:42:22;;;;;;;5.32;2.70;;;;;;;;;;5063888;28;20519;-75
2022/09/21 03:44:48;;;;;;;4.40;2.72;;;;;;;;;;5059497;28;20118;-75
2022/09/21 03:47:14;;;;;;;6.47;3.65;;;;;;;;;;5051400;28;20045;-75
2022/09/21 03:49:40;;;;;;;8.73;4.05;;;;;;;;;;5056984;28;20053;-76
2022/09/21 03:52:06;;;;;;;7.18;3.70;;;;;;;;;;5063487;28;20072;-75
2022/09/21 03:54:32;;;;;;;9.30;4.20;;;;;;;;;;5055200;28;20045;-75
2022/09/21 03:56:58;;;;;;;5.85;3.35;;;;;;;;;;5068646;28;20076;-75
2022/09/21 03:59:24;;;;;;;5.30;3.53;;;;;;;;;;5078072;28;20067;-75
2022/09/21 04:01:50;;;;;;;7.88;3.40;;;;;;;;;;5077512;28;20048;-76
2022/09/21 04:04:16;;;;;;;5.80;3.30;;;;;;;;;;5077373;28;20474;-75
2022/09/21 04:06:45;;;;;;;4.00;3.00;;;;;;;;;;5069275;28;20799;-75
2022/09/21 04:09:11;;;;;;;6.45;2.95;;;;;;;;;;5038474;28;20048;-75
2022/09/21 04:11:38;;;;;;;6.90;3.17;;;;;;;;;;5058063;28;20041;-75
2022/09/21 04:14:07;;;;;;;8.63;3.40;;;;;;;;;;5056021;28;20049;-75
2022/09/21 04:16:36;;;;;;;6.65;3.40;;;;;;;;;;5058950;28;20041;-75
2022/09/21 04:19:02;;;;;;;7.80;3.47;;;;;;;;;;5077567;28;20389;-75
2022/09/21 04:21:28;;;;;;;3.03;2.30;;;;;;;;;;5071342;28;20037;-75
2022/09/21 04:23:54;;;;;;;5.32;3.53;;;;;;;;;;5066494;28;20500;-75
2022/09/21 04:26:25;;;;;;;4.85;2.60;;;;;;;;;;5075036;28;20494;-75
2022/09/21 04:28:51;;;;;;;5.53;3.03;;;;;;;;;;5077089;28;20055;-75
2022/09/21 04:31:17;;;;;;;9.02;3.50;;;;;;;;;;5077218;28;20045;-75
2022/09/21 04:33:44;;;;;;;6.05;2.90;;;;;;;;;;5077247;28;20048;-76
2022/09/21 04:36:10;;;;;;;5.72;3.22;;;;;;;;;;5076598;28;20468;-75
2022/09/21 04:38:37;;;;;;;5.22;2.78;;;;;;;;;;5074404;28;20476;-75
2022/09/21 04:41:03;;;;;;;2.20;1.90;;;;;;;;;;5075751;28;20059;-75
2022/09/21 04:43:29;;;;;;;2.95;2.00;;;;;;;;;;5076915;28;20071;-75
2022/09/21 04:45:55;;;;;;;2.80;2.30;;;;;;;;;;5064473;28;20048;-76
2022/09/21 04:48:21;;;;;;;3.20;2.10;;;;;;;;;;5057598;28;20135;-75
2022/09/21 04:50:50;;;;;;;4.80;2.58;;;;;;;;;;5045050;28;20049;-75
2022/09/21 04:53:16;;;;;;;5.85;2.67;;;;;;;;;;5059382;28;20044;-75
2022/09/21 04:55:44;;;;;;;4.28;2.75;;;;;;;;;;5050863;28;20427;-75
2022/09/21 04:58:10;;;;;;;6.32;3.60;;;;;;;;;;5078634;28;20044;-75
2022/09/21 05:00:36;;;;;;;5.60;3.08;;;;;;;;;;5081186;28;20036;-75
2022/09/21 05:03:02;;;;;;;6.40;3.20;;;;;;;;;;5063416;28;20056;-75
2022/09/21 05:05:28;;;;;;;7.10;3.00;;;;;;;;;;5075873;28;20045;-75
2022/09/21 05:07:54;;;;;;;4.43;2.80;;;;;;;;;;5026080;28;20074;-75
2022/09/21 05:10:20;;;;;;;5.43;3.10;;;;;;;;;;5058984;28;20074;-75
2022/09/21 05:12:46;;;;;;;5.32;2.97;;;;;;;;;;5048348;28;20044;-75
2022/09/21 05:15:12;;;;;;;5.90;3.25;;;;;;;;;;5042804;28;20049;-75
2022/09/21 05:17:39;;;;;;;5.50;3.00;;;;;;;;;;5060311;28;20041;-76
2022/09/21 05:20:06;;;;;;;8.05;3.40;;;;;;;;;;5071676;28;20040;-77
2022/09/21 05:22:32;;;;;;;4.97;3.33;;;;;;;;;;5061181;28;20098;-76
2022/09/21 05:24:58;;;;;;;6.43;3.45;;;;;;;;;;5079609;28;20512;-76
2022/09/21 05:27:24;;;;;;;5.78;3.28;;;;;;;;;;5076258;28;20040;-75
2022/09/21 05:29:50;;;;;;;6.50;3.50;;;;;;;;;;5048117;28;20147;-76
2022/09/21 05:32:16;;;;;;;6.32;3.58;;;;;;;;;;5080807;28;20112;-76
2022/09/21 05:34:48;;;;;;;6.35;3.72;;;;;;;;;;5066551;28;20045;-75
2022/09/21 05:37:33;;;;;;;6.22;3.15;;;;;;;;;;5070631;28;20048;-76
2022/09/21 05:39:59;;;;;;;5.50;3.22;;;;;;;;;;5070186;28;20037;-75
2022/09/21 05:42:26;;;;;;;6.45;3.10;;;;;;;;;;5077593;28;20086;-76
2022/09/21 05:44:55;;;;;;;6.78;3.90;;;;;;;;;;5049984;28;20045;-75
2022/09/21 05:47:45;;;;;;;7.18;3.35;;;;;;;;;;5083453;28;20078;-76
2022/09/21 05:50:30;;;;;;;6.40;3.33;;;;;;;;;;5083925;28;20056;-75
2022/09/21 05:53:28;;;;;;;6.13;3.80;;;;;;;;;;5083523;28;20054;-76
2022/09/21 05:55:59;;;;;;;5.75;3.28;;;;;;;;;;4981017;28;20084;-76
2022/09/21 05:58:28;;;;;;;8.73;3.92;;;;;;;;;;4984134;28;20047;-74
2022/09/21 06:00:54;;;;;;;5.82;3.53;;;;;;;;;;4985546;28;20066;-74
2022/09/21 06:03:28;;;;;;;6.65;3.35;;;;;;;;;;4986324;28;20043;-74
2022/09/21 06:05:54;;;;;;;4.85;3.22;;;;;;;;;;4985992;28;20141;-74
2022/09/21 06:08:21;;;;;;;4.68;3.05;;;;;;;;;;4985858;28;20043;-74
2022/09/21 06:10:47;;;;;;;5.38;3.15;;;;;;;;;;4970788;28;20513;-75
2022/09/21 06:13:13;;;;;;;5.47;3.20;;;;;;;;;;4972495;28;20059;-78
2022/09/21 06:15:40;;;;;;;5.38;3.30;;;;;;;;;;4958361;29;20038;-78
2022/09/21 06:18:07;;;;;;;6.25;3.28;;;;;;;;;;4957010;29;20051;-77
2022/09/21 06:20:33;;;;;;;9.65;3.80;;;;;;;;;;4957981;28;20058;-76
2022/09/21 06:23:00;;;;;;;5.63;3.70;;;;;;;;;;4954895;29;20523;-75
2022/09/21 06:25:27;;;;;;;6.25;3.50;;;;;;;;;;4938477;29;20542;-75
2022/09/21 06:27:53;;;;;;;8.02;3.60;;;;;;;;;;4963770;28;20084;-75
2022/09/21 06:30:19;;;;;;;9.05;3.90;;;;;;;;;;4943393;28;20105;-74
2022/09/21 06:32:45;;;;;;;6.63;3.90;;;;;;;;;;5030432;28;20141;-75
2022/09/21 06:35:11;;;;;;;9.05;3.88;;;;;;;;;;5056576;28;20083;-76
2022/09/21 06:37:39;;;;;;;8.23;4.22;;;;;;;;;;5076830;28;20047;-75
2022/09/21 06:40:05;;;;;;;7.97;4.13;;;;;;;;;;5036610;28;20079;-75
2022/09/21 06:42:31;;;;;;;5.47;3.75;;;;;;;;;;5055181;28;20052;-75
2022/09/21 06:44:57;;;;;;;6.50;3.85;;;;;;;;;;5054592;28;20041;-75
2022/09/21 06:47:23;;;;;;;6.30;3.63;;;;;;;;;;5036847;28;20170;-75
2022/09/21 06:49:49;;;;;;;7.47;4.05;;;;;;;;;;5054632;28;20131;-76
2022/09/21 06:52:16;;;;;;;7.43;3.90;;;;;;;;;;5054766;28;20045;-75
2022/09/21 06:54:42;;;;;;;10.30;3.78;;;;;;;;;;5054285;28;20095;-75
2022/09/21 06:57:08;;;;;;;6.25;3.47;;;;;;;;;;5054031;28;20048;-75
2022/09/21 06:59:34;;;;;;;6.53;3.58;;;;;;;;;;5036495;28;20116;-75
2022/09/21 07:02:00;;;;;;;7.20;3.50;;;;;;;;;;5054122;28;20044;-76
2022/09/21 07:04:28;;;;;;;9.77;3.80;;;;;;;;;;5054284;28;20041;-75
2022/09/21 07:06:54;;;;;;;6.10;3.38;;;;;;;;;;5064489;28;20125;-75
2022/09/21 07:09:20;;;;;;;6.47;3.40;;;;;;;;;;5073518;28;20048;-75
2022/09/21 07:11:46;;;;;;;7.57;3.20;;;;;;;;;;5071770;28;20036;-75
2022/09/21 07:14:13;;;;;;;12.93;3.28;;;;;;;;;;5036119;28;20135;-75
2022/09/21 07:16:40;;;;;;;8.27;2.80;;;;;;;;;;5056903;28;20113;-76
2022/09/21 07:19:06;;;;;;;8.80;2.75;;;;;;;;;;5035782;28;20037;-79
2022/09/21 07:21:32;;;;;;;5.25;2.95;;;;;;;;;;5035315;28;20569;-79
2022/09/21 07:23:59;;;;;;;10.38;3.10;;;;;;;;;;5036612;28;20498;-78
2022/09/21 07:26:25;;;;;;;6.78;2.40;;;;;;;;;;5054886;28;20049;-77
2022/09/21 07:28:51;;;;;;;5.50;2.30;;;;;;;;;;5044962;28;20053;-77
2022/09/21 07:31:17;;;;;;;8.88;3.05;;;;;;;;;;5036298;28;20040;-77
2022/09/21 07:33:47;;;;;;;5.78;2.20;;;;;;;;;;5053716;28;20497;-77
2022/09/21 07:36:13;;;;;;;6.65;2.15;;;;;;;;;;5053623;28;20056;-77
2022/09/21 07:38:43;;;;;;;6.75;2.20;;;;;;;;;;5054415;28;20063;-77
2022/09/21 07:41:10;;;;;;;5.22;2.45;;;;;;;;;;5055625;28;20044;-77
2022/09/21 07:43:39;;;;;;;5.85;2.10;;;;;;;;;;5055207;28;20562;-77
2022/09/21 07:46:06;;;;;;;3.70;1.83;;;;;;;;;;5055761;28;20056;-77
2022/09/21 07:48:32;;;;;;;5.75;2.45;;;;;;;;;;5051254;28;20059;-77
2022/09/21 07:51:04;;;;;;;4.50;2.22;;;;;;;;;;5035962;28;20049;-77
2022/09/21 07:53:31;;;;;;;5.70;2.10;;;;;;;;;;5035751;28;20131;-77
2022/09/21 07:56:01;;;;;;;6.10;2.13;;;;;;;;;;5033860;28;20087;-77
2022/09/21 08:01:12;;;;;;;6.43;2.22;;;;;;;;;;5050915;28;20501;-77
2022/09/21 08:03:38;;;;;;;4.93;1.90;;;;;;;;;;5053037;28;20501;-76
2022/09/21 08:06:05;;;;;;;5.80;2.53;;;;;;;;;;5054095;28;20068;-77
2022/09/21 08:08:31;;;;;;;8.10;2.15;;;;;;;;;;5053707;28;20052;-77
2022/09/21 08:11:04;;;;;;;3.70;2.00;;;;;;;;;;5049688;28;20048;-77
2022/09/21 08:13:30;;;;;;;3.00;2.08;;;;;;;;;;5033823;28;20044;-77
2022/09/21 08:15:57;;;;;;;4.63;2.10;;;;;;;;;;5041145;28;20451;-80
2022/09/21 08:18:23;;;;;;;5.25;2.30;;;;;;;;;;5053040;28;20049;-79
2022/09/21 08:20:54;;;;;;;7.38;2.45;;;;;;;;;;5052859;28;20094;-79
2022/09/21 08:23:20;;;;;;;5.78;2.40;;;;;;;;;;5034909;28;20408;-79
2022/09/21 08:25:47;;;;;;;5.57;2.33;;;;;;;;;;5052857;28;20116;-79
2022/09/21 08:28:13;;;;;;;5.95;1.95;;;;;;;;;;5027722;28;20107;-78
2022/09/21 08:30:40;;;;;;;6.13;2.13;;;;;;;;;;5001387;28;20394;-79
2022/09/21 08:33:07;;;;;;;6.25;2.20;;;;;;;;;;5046328;28;20053;-79
2022/09/21 08:35:33;;;;;;;5.60;1.88;;;;;;;;;;5018868;28;20053;-79
2022/09/21 08:37:59;;;;;;;5.80;2.10;;;;;;;;;;5018680;28;20402;-79
2022/09/21 08:40:25;;;;;;;8.55;2.65;;;;;;;;;;5019170;28;20120;-79
2022/09/21 08:43:07;;;;;;;5.13;2.00;;;;;;;;;;5054443;28;20048;-80
2022/09/21 08:45:37;;;;;;;6.35;2.10;;;;;;;;;;5057185;28;20051;-79
2022/09/21 08:48:05;;;;;;;4.15;1.83;;;;;;;;;;5056822;28;20037;-78
2022/09/21 08:50:40;;;;;;;7.30;2.10;;;;;;;;;;5076865;28;20059;-78
2022/09/21 08:53:15;;;;;;;6.93;1.80;;;;;;;;;;5076640;28;20044;-78
2022/09/21 08:55:41;;;;;;;6.65;1.90;;;;;;;;;;5074296;28;20517;-78
2022/09/21 08:58:27;;;;;;;2.38;1.30;;;;;;;;;;5038504;28;20036;-79
2022/09/21 09:01:11;;;;;;;3.97;1.67;;;;;;;;;;5069975;28;20041;-79
2022/09/21 09:03:37;;;;;;;5.20;1.92;;;;;;;;;;5058422;28;20091;-78
2022/09/21 09:06:03;;;;;;;6.57;2.10;;;;;;;;;;5076420;28;20045;-78
2022/09/21 09:08:48;;;;;;;4.80;1.75;;;;;;;;;;5065077;28;20037;-79
2022/09/21 09:11:20;;;;;;;7.30;1.77;;;;;;;;;;5061330;28;20127;-79
2022/09/21 09:14:05;;;;;;;3.97;1.90;;;;;;;;;;5044979;28;20056;-79
2022/09/21 09:16:58;;;;;;;4.10;1.80;;;;;;;;;;5058305;28;20121;-79
2022/09/21 09:19:30;;;;;;;7.43;1.73;;;;;;;;;;5056966;28;20048;-79
2022/09/21 09:21:56;;;;;;;7.15;1.95;;;;;;;;;;5056501;28;20037;-80
2022/09/21 09:24:58;;;;;;;3.83;1.88;;;;;;;;;;5051861;28;20052;-79
2022/09/21 09:27:29;;;;;;;4.68;1.77;;;;;;;;;;4960448;28;20121;-79
2022/09/21 09:30:01;;;;;;;5.90;1.70;;;;;;;;;;4955486;29;20059;-79
2022/09/21 09:32:31;;;;;;;4.32;1.63;;;;;;;;;;4955423;29;20043;-79
2022/09/21 09:35:02;;;;;;;6.75;1.70;;;;;;;;;;4955439;29;20531;-79
2022/09/21 09:37:30;;;;;;;5.40;2.17;;;;;;;;;;4955957;29;20047;-79
2022/09/21 09:39:59;;;;;;;4.45;1.73;;;;;;;;;;4958795;28;20071;-79
2022/09/21 09:42:25;;;;;;;6.95;2.38;;;;;;;;;;4952427;28;20059;-81
2022/09/21 09:45:00;;;;;;;3.63;1.50;;;;;;;;;;4972917;28;20602;-77
2022/09/21 09:47:35;;;;;;;6.28;1.75;;;;;;;;;;4973217;28;20139;-79
2022/09/21 09:50:05;;;;;;;5.10;1.63;;;;;;;;;;4955128;29;20055;-79
2022/09/21 09:52:31;;;;;;;6.80;1.90;;;;;;;;;;4954711;29;20094;-79
2022/09/21 09:55:01;;;;;;;5.50;2.00;;;;;;;;;;4969199;28;20061;-80
2022/09/21 09:57:32;;;;;;;5.78;1.90;;;;;;;;;;4974268;28;20058;-79
2022/09/21 10:00:00;;;;;;;6.07;1.58;;;;;;;;;;4957903;28;20039;-79
2022/09/21 10:02:27;;;;;;;2.83;1.40;;;;;;;;;;5051743;28;20497;-79
2022/09/21 10:05:07;;;;;;;5.72;1.70;;;;;;;;;;5074265;28;20048;-79
2022/09/21 10:07:33;;;;;;;4.45;1.85;;;;;;;;;;5075064;28;20093;-81
2022/09/21 10:09:59;;;;;;;4.05;1.98;;;;;;;;;;5057936;28;20124;-80
2022/09/21 10:12:26;;;;;;;5.40;1.83;;;;;;;;;;5054858;28;20096;-80
2022/09/21 10:14:54;;;;;;;5.63;1.88;;;;;;;;;;5067161;28;20500;-80
2022/09/21 10:17:21;;;;;;;5.68;2.03;;;;;;;;;;5075490;28;20119;-80
2022/09/21 10:19:47;;;;;;;4.68;1.52;;;;;;;;;;5075462;28;20044;-80
2022/09/21 10:22:19;;;;;;;4.22;1.70;;;;;;;;;;5074874;28;20043;-80
2022/09/21 10:24:49;;;;;;;5.32;1.67;;;;;;;;;;5064726;28;20507;-80
2022/09/21 10:27:16;;;;;;;4.97;1.88;;;;;;;;;;5054155;28;20517;-80
2022/09/21 10:29:44;;;;;;;3.72;1.65;;;;;;;;;;5058533;28;20080;-79
2022/09/21 10:32:15;;;;;;;6.60;2.33;;;;;;;;;;5054343;28;20052;-79
2022/09/21 10:34:43;;;;;;;7.45;2.40;;;;;;;;;;5066109;28;20048;-80
2022/09/21 10:37:27;;;;;;;6.20;1.73;;;;;;;;;;5074133;28;20041;-80
2022/09/21 10:39:54;;;;;;;5.75;1.80;;;;;;;;;;5073976;28;20049;-80
2022/09/21 10:42:23;;;;;;;3.15;1.42;;;;;;;;;;5074322;28;20434;-80
2022/09/21 10:44:53;;;;;;;5.63;1.73;;;;;;;;;;5054809;28;20120;-80
2022/09/21 10:47:28;;;;;;;5.32;1.88;;;;;;;;;;5060446;28;20040;-80
2022/09/21 10:49:58;;;;;;;4.90;1.52;;;;;;;;;;5074184;28;20064;-80
2022/09/21 10:52:25;;;;;;;6.63;1.83;;;;;;;;;;5074881;28;20075;-80
2022/09/21 10:54:53;;;;;;;3.92;1.70;;;;;;;;;;5074453;28;20044;-80
2022/09/21 10:57:21;;;;;;;4.20;1.63;;;;;;;;;;5071352;28;20055;-80
2022/09/21 10:59:47;;;;;;;7.63;2.33;;;;;;;;;;5035681;28;20465;-81
2022/09/21 11:02:28;;;;;;;3.47;1.60;;;;;;;;;;5054034;28;20103;-81
2022/09/21 11:05:06;;;;;;;5.13;1.90;;;;;;;;;;5053439;28;20624;-80
2022/09/21 11:07:33;;;;;;;3.70;1.60;;;;;;;;;;5057607;28;20053;-79
2022/09/21 11:10:05;;;;;;;9.07;2.03;;;;;;;;;;5051910;28;20040;-80
2022/09/21 11:12:31;;;;;;;3.85;1.85;;;;;;;;;;5053474;28;20037;-80
2022/09/21 11:15:03;;;;;;;4.10;1.50;;;;;;;;;;5053317;28;20045;-80
2022/09/21 11:17:34;;;;;;;6.60;2.25;;;;;;;;;;5053550;28;20041;-80
2022/09/21 11:20:19;;;;;;;4.18;1.50;;;;;;;;;;5054187;28;20037;-79
2022/09/21 11:22:50;;;;;;;3.17;1.40;;;;;;;;;;5019646;28;20120;-80
2022/09/21 11:25:29;;;;;;;5.05;1.65;;;;;;;;;;5053516;28;20052;-80
2022/09/21 11:28:00;;;;;;;4.53;1.40;;;;;;;;;;5053741;28;20183;-80
2022/09/21 11:30:30;;;;;;;5.68;1.67;;;;;;;;;;5054015;28;20420;-80
2022/09/21 11:33:03;;;;;;;4.63;1.48;;;;;;;;;;5053938;28;20068;-80
2022/09/21 11:35:57;;;;;;;5.72;2.17;;;;;;;;;;5053293;28;20083;-80
2022/09/21 11:38:37;;;;;;;3.10;1.60;;;;;;;;;;5023430;28;20049;-80
2022/09/21 11:41:22;;;;;;;3.63;1.50;;;;;;;;;;5073424;28;20044;-79
2022/09/21 11:43:57;;;;;;;5.47;1.83;;;;;;;;;;5073515;28;20080;-80
2022/09/21 11:46:35;;;;;;;6.13;1.92;;;;;;;;;;5074040;28;20106;-79
2022/09/21 11:49:04;;;;;;;4.15;1.42;;;;;;;;;;5073196;28;20049;-79
2022/09/21 11:51:46;;;;;;;4.55;1.70;;;;;;;;;;5073364;28;20044;-79
2022/09/21 11:54:24;;;;;;;3.85;1.55;;;;;;;;;;5073096;28;20044;-79
2022/09/21 11:56:53;;;;;;;3.30;1.55;;;;;;;;;;5073846;28;20048;-79
2022/09/21 11:59:29;;;;;;;4.75;1.80;;;;;;;;;;5073177;28;20096;-80
2022/09/21 12:02:24;;;;;;;3.30;1.70;;;;;;;;;;5073182;28;20161;-80
2022/09/21 12:04:50;;;;;;;4.68;1.50;;;;;;;;;;4972428;28;20105;-81
2022/09/21 12:07:23;;;;;;;2.85;1.05;;;;;;;;;;4954808;28;20122;-81
2022/09/21 12:10:04;;;;;;;3.00;1.50;;;;;;;;;;4957546;29;20058;-81
2022/09/21 12:12:40;;;;;;;2.35;1.17;;;;;;;;;;4956802;29;20098;-81
2022/09/21 12:15:07;;;;;;;2.95;1.52;;;;;;;;;;4941154;29;20106;-81
2022/09/21 12:17:52;;;;;;;2.70;1.25;;;;;;;;;;4941120;29;20126;-82
2022/09/21 12:20:20;;;;;;;3.45;1.40;;;;;;;;;;4958072;28;20106;-81
2022/09/21 12:22:49;;;;;;;3.13;1.65;;;;;;;;;;4957126;29;20047;-81
2022/09/21 12:25:22;;;;;;;3.72;1.67;;;;;;;;;;4956847;29;20048;-81
2022/09/21 12:27:51;;;;;;;6.38;2.08;;;;;;;;;;4957430;29;20051;-81
2022/09/21 12:30:18;;;;;;;6.40;1.60;;;;;;;;;;4957544;28;20470;-79
2022/09/21 12:32:48;;;;;;;7.55;1.80;;;;;;;;;;4976433;28;20046;-80
2022/09/21 12:35:16;;;;;;;6.45;1.80;;;;;;;;;;4975626;28;20055;-80
2022/09/21 12:37:47;;;;;;;7.95;2.28;;;;;;;;;;4940216;29;20058;-80
2022/09/21 12:40:13;;;;;;;6.15;1.70;;;;;;;;;;4965862;28;20048;-80
2022/09/21 12:42:46;;;;;;;4.05;1.50;;;;;;;;;;5058192;28;20497;-80
2022/09/21 12:45:21;;;;;;;5.28;1.83;;;;;;;;;;5060085;28;20045;-80
2022/09/21 12:47:57;;;;;;;4.63;1.60;;;;;;;;;;5083821;28;20036;-80
2022/09/21 12:50:34;;;;;;;3.95;1.50;;;;;;;;;;5067258;28;20135;-80
2022/09/21 12:53:01;;;;;;;4.90;1.90;;;;;;;;;;5064649;28;20049;-79
2022/09/21 12:55:33;;;;;;;6.72;2.38;;;;;;;;;;5060355;28;20091;-79
2022/09/21 12:58:04;;;;;;;5.55;1.65;;;;;;;;;;5056495;28;20048;-79
2022/09/21 13:00:34;;;;;;;3.90;1.73;;;;;;;;;;5038129;28;20045;-79
2022/09/21 13:03:09;;;;;;;6.03;1.90;;;;;;;;;;5056014;28;20045;-80
2022/09/21 13:05:35;;;;;;;4.05;1.85;;;;;;;;;;5056927;28;20066;-80
2022/09/21 13:08:12;;;;;;;4.68;1.65;;;;;;;;;;5056293;28;20041;-79
2022/09/21 13:10:58;;;;;;;5.30;1.55;;;;;;;;;;5056065;28;20045;-79
2022/09/21 13:13:27;;;;;;;3.42;1.60;;;;;;;;;;5056470;28;20051;-79
2022/09/21 13:15:53;;;;;;;4.43;1.67;;;;;;;;;;5055917;28;20397;-79
2022/09/21 13:18:22;;;;;;;4.55;1.65;;;;;;;;;;5055355;28;20123;-79
2022/09/21 13:20:50;;;;;;;4.05;1.63;;;;;;;;;;5056298;28;20037;-79
2022/09/21 13:23:28;;;;;;;5.25;1.92;;;;;;;;;;5055997;28;20073;-79
2022/09/21 13:26:02;;;;;;;6.13;1.70;;;;;;;;;;5056260;28;20103;-79
2022/09/21 13:28:43;;;;;;;6.20;1.85;;;;;;;;;;5043577;28;20037;-79
2022/09/21 13:31:15;;;;;;;5.22;1.70;;;;;;;;;;5055797;28;20135;-79
2022/09/21 13:34:01;;;;;;;2.63;1.27;;;;;;;;;;5055617;28;20045;-79
2022/09/21 13:36:35;;;;;;;5.22;1.50;;;;;;;;;;5051932;28;20072;-79
2022/09/21 13:39:19;;;;;;;3.05;1.50;;;;;;;;;;5038308;28;20075;-78
2022/09/21 13:41:45;;;;;;;6.57;2.10;;;;;;;;;;5037578;28;20068;-80
2022/09/21 13:44:30;;;;;;;5.05;1.75;;;;;;;;;;5051102;28;20056;-78
2022/09/21 13:46:57;;;;;;;4.45;1.70;;;;;;;;;;5055161;28;20048;-79
2022/09/21 13:49:38;;;;;;;4.60;1.67;;;;;;;;;;5055157;28;20060;-79
2022/09/21 13:52:06;;;;;;;3.33;1.73;;;;;;;;;;5075469;28;20473;-78
2022/09/21 13:54:34;;;;;;;6.15;2.05;;;;;;;;;;5075648;28;20044;-78
2022/09/21 13:57:05;;;;;;;4.80;1.90;;;;;;;;;;5076027;28;20048;-79
2022/09/21 13:59:33;;;;;;;5.10;1.90;;;;;;;;;;5064054;28;20063;-79
2022/09/21 14:02:00;;;;;;;4.18;1.73;;;;;;;;;;5055187;28;20053;-79
2022/09/21 14:04:31;;;;;;;6.22;1.83;;;;;;;;;;5055746;28;20049;-79
2022/09/21 14:06:57;;;;;;;4.40;1.70;;;;;;;;;;5038540;28;20048;-81
2022/09/21 14:09:28;;;;;;;6.53;2.42;;;;;;;;;;5055814;28;20052;-80
2022/09/21 14:12:05;;;;;;;4.22;1.73;;;;;;;;;;5054973;28;20121;-80
2022/09/21 14:14:32;;;;;;;4.20;1.70;;;;;;;;;;5060416;28;20496;-80
2022/09/21 14:16:59;;;;;;;5.13;1.67;;;;;;;;;;5054844;28;20043;-81
2022/09/21 14:19:25;;;;;;;6.28;1.77;;;;;;;;;;5055936;28;20041;-82
2022/09/21 14:24:37;;;;;;;5.93;1.77;;;;;;;;;;5054733;28;20052;-80
2022/09/21 14:27:24;;;;;;;3.75;1.92;;;;;;;;;;5054996;28;20041;-80
2022/09/21 14:29:52;;;;;;;2.83;1.40;;;;;;;;;;5054509;28;20132;-80
2022/09/21 14:32:22;;;;;;;4.32;1.90;;;;;;;;;;5020410;28;20412;-82
2022/09/21 14:34:49;;;;;;;5.50;1.67;;;;;;;;;;5054315;28;20041;-80
2022/09/21 14:37:21;;;;;;;6.15;2.13;;;;;;;;;;5060220;28;20044;-81
2022/09/21 14:39:48;;;;;;;4.32;1.63;;;;;;;;;;5070847;28;20464;-81
2022/09/21 14:42:18;;;;;;;5.13;1.95;;;;;;;;;;5065766;28;20455;-81
2022/09/21 14:44:49;;;;;;;4.97;1.73;;;;;;;;;;5060324;28;20451;-80
2022/09/21 14:47:24;;;;;;;7.07;4.47;;;;;;;;;;5055896;28;20542;-81
2022/09/21 14:50:10;;;;;;;3.63;1.95;;;;;;;;;;5057089;28;20069;-79
2022/09/21 14:52:39;;;;;;;5.05;2.10;;;;;;;;;;5065228;28;20051;-81
2022/09/21 14:55:29;;;;;;;7.78;1.90;;;;;;;;;;5060190;28;20044;-81
2022/09/21 14:58:14;;;;;;;4.38;1.95;;;;;;;;;;5061296;28;20044;-80
2022/09/21 15:00:41;;;;;;;4.47;1.80;;;;;;;;;;5060187;28;20515;-81
2022/09/21 15:03:08;;;;;;;8.18;2.22;;;;;;;;;;5068431;28;20053;-81
2022/09/21 15:05:36;;;;;;;4.53;1.65;;;;;;;;;;5055110;28;20067;-81